createdAt,value
2023-01-01T00:00:44.308Z,13.29
2023-01-01T00:02:07.563Z,13.29
2023-01-01T00:03:10.854Z,13.29
2023-01-01T00:04:15.930Z,13.30
2023-01-01T00:05:18.984Z,13.30
2023-01-01T00:06:23.543Z,13.31
2023-01-01T00:07:29.563Z,13.32
2023-01-01T00:08:32.555Z,13.32
2023-01-01T00:09:54.652Z,13.33
2023-01-01T00:11:03.007Z,13.34
2023-01-01T00:12:06.486Z,13.33
2023-01-01T00:13:14.246Z,13.33
2023-01-01T00:14:17.449Z,13.33
2023-01-01T00:15:20.878Z,13.34
2023-01-01T00:16:23.942Z,13.35
2023-01-01T00:17:27.017Z,13.35
2023-01-01T00:18:30.428Z,13.35
2023-01-01T00:19:36.174Z,13.36
2023-01-01T00:20:39.287Z,13.37
2023-01-01T00:21:42.326Z,13.38
2023-01-01T00:22:55.018Z,13.39
2023-01-01T00:23:58.749Z,13.40
2023-01-01T00:25:03.915Z,13.41
2023-01-01T00:26:11.909Z,13.42
2023-01-01T00:27:15.098Z,13.44
2023-01-01T00:28:18.399Z,13.45
2023-01-01T00:29:30.360Z,13.47
2023-01-01T00:30:42.468Z,13.48
2023-01-01T00:31:46.892Z,13.50
2023-01-01T00:32:55.154Z,13.51
2023-01-01T00:34:10.464Z,13.51
2023-01-01T00:35:16.039Z,13.53
2023-01-01T00:36:20.809Z,13.53
2023-01-01T00:37:24.112Z,13.54
2023-01-01T00:38:27.242Z,13.55
2023-01-01T00:39:38.103Z,13.57
2023-01-01T00:40:41.187Z,13.58
2023-01-01T00:41:44.399Z,13.61
2023-01-01T00:42:47.577Z,13.63
2023-01-01T00:43:50.709Z,13.64
2023-01-01T00:44:53.847Z,13.66
2023-01-01T00:45:57.016Z,13.68
2023-01-01T00:47:02.771Z,13.70
2023-01-01T00:48:06.269Z,13.72
2023-01-01T00:49:09.345Z,13.75
2023-01-01T00:50:14.448Z,13.77
2023-01-01T00:51:17.570Z,13.78
2023-01-01T00:52:20.823Z,13.80
2023-01-01T00:53:27.631Z,13.82
2023-01-01T00:54:30.771Z,13.83
2023-01-01T00:55:40.404Z,13.85
2023-01-01T00:56:43.656Z,13.86
2023-01-01T00:57:46.798Z,13.89
2023-01-01T00:59:00.854Z,13.91
2023-01-01T01:00:09.418Z,13.92
2023-01-01T01:01:12.891Z,13.95
2023-01-01T01:02:16.253Z,13.97
2023-01-01T01:03:28.674Z,13.98
2023-01-01T01:04:32.870Z,14.00
2023-01-01T01:05:38.669Z,14.01
2023-01-01T01:06:42.467Z,14.03
2023-01-01T01:07:52.056Z,14.05
2023-01-01T01:08:55.821Z,14.07
2023-01-01T01:09:59.784Z,14.09
2023-01-01T01:11:12.495Z,14.11
2023-01-01T01:12:18.082Z,14.13
2023-01-01T01:13:22.876Z,14.15
2023-01-01T01:14:26.185Z,14.17
2023-01-01T01:15:36.333Z,14.20
2023-01-01T01:16:39.468Z,14.21
2023-01-01T01:17:42.598Z,14.24
2023-01-01T01:18:47.562Z,14.26
2023-01-01T01:19:50.627Z,14.29
2023-01-01T01:21:00.549Z,14.31
2023-01-01T01:22:04.034Z,14.34
2023-01-01T01:23:07.075Z,14.35
2023-01-01T01:24:10.474Z,14.38
2023-01-01T01:25:13.720Z,14.41
2023-01-01T01:26:25.142Z,14.43
2023-01-01T01:27:31.695Z,14.45
2023-01-01T01:28:38.844Z,14.47
2023-01-01T01:29:43.486Z,14.50
2023-01-01T01:30:46.584Z,14.52
2023-01-01T01:31:49.840Z,14.54
2023-01-01T01:32:54.048Z,14.55
2023-01-01T01:33:57.957Z,14.56
2023-01-01T01:35:01.127Z,14.58
2023-01-01T01:36:05.611Z,14.59
2023-01-01T01:37:08.865Z,14.61
2023-01-01T01:38:12.184Z,14.63
2023-01-01T01:39:15.544Z,14.65
2023-01-01T01:40:19.705Z,14.68
2023-01-01T01:41:28.716Z,14.71
2023-01-01T01:42:32.721Z,14.73
2023-01-01T01:43:35.870Z,14.75
2023-01-01T01:44:56.242Z,14.76
2023-01-01T01:46:13.203Z,14.78
2023-01-01T01:47:38.368Z,14.79
2023-01-01T01:48:45.746Z,14.81
2023-01-01T01:49:52.706Z,14.82
2023-01-01T01:50:57.289Z,14.82
2023-01-01T01:52:02.163Z,14.83
2023-01-01T01:53:13.108Z,14.84
2023-01-01T01:54:23.570Z,14.85
2023-01-01T01:55:31.258Z,14.85
2023-01-01T01:56:50.393Z,14.86
2023-01-01T01:57:54.441Z,14.86
2023-01-01T01:58:59.434Z,14.86
2023-01-01T02:00:10.648Z,14.87
2023-01-01T02:01:16.588Z,14.86
2023-01-01T02:02:34.253Z,14.86
2023-01-01T02:03:45.524Z,14.87
2023-01-01T02:04:49.244Z,14.87
2023-01-01T02:05:53.890Z,14.88
2023-01-01T02:06:57.291Z,14.89
2023-01-01T02:08:01.004Z,14.90
2023-01-01T02:09:11.314Z,14.90
2023-01-01T02:10:14.451Z,14.89
2023-01-01T02:11:21.932Z,14.89
2023-01-01T02:12:27.474Z,14.90
2023-01-01T02:13:31.081Z,14.90
2023-01-01T02:14:37.895Z,14.90
2023-01-01T02:15:59.387Z,14.89
2023-01-01T02:17:10.095Z,14.89
2023-01-01T02:18:20.337Z,14.88
2023-01-01T02:19:51.933Z,14.86
2023-01-01T02:21:03.705Z,14.85
2023-01-01T02:22:17.319Z,14.85
2023-01-01T02:23:43.253Z,14.84
2023-01-01T02:25:06.288Z,14.82
2023-01-01T02:26:24.797Z,14.80
2023-01-01T02:27:39.963Z,14.79
2023-01-01T02:29:03.835Z,14.78
2023-01-01T02:30:09.282Z,14.78
2023-01-01T02:31:44.136Z,14.77
2023-01-01T02:32:58.345Z,14.76
2023-01-01T02:34:07.479Z,14.75
2023-01-01T02:35:36.996Z,14.74
2023-01-01T02:36:55.225Z,14.74
2023-01-01T02:38:04.620Z,14.74
2023-01-01T02:39:11.971Z,14.73
2023-01-01T02:40:15.860Z,14.73
2023-01-01T02:41:27.754Z,14.73
2023-01-01T02:42:31.827Z,14.73
2023-01-01T02:43:36.058Z,14.74
2023-01-01T02:44:43.166Z,14.75
2023-01-01T02:45:47.081Z,14.75
2023-01-01T02:46:50.748Z,14.75
2023-01-01T02:47:54.040Z,14.76
2023-01-01T02:48:57.087Z,14.76
2023-01-01T02:50:08.080Z,14.78
2023-01-01T02:51:14.243Z,14.78
2023-01-01T02:52:54.621Z,14.78
2023-01-01T02:54:03.268Z,14.77
2023-01-01T02:55:20.846Z,14.76
2023-01-01T02:56:42.557Z,14.78
2023-01-01T02:57:55.102Z,14.79
2023-01-01T02:59:38.973Z,14.80
2023-01-01T03:00:47.671Z,14.78
2023-01-01T03:02:04.227Z,14.77
2023-01-01T03:03:34.800Z,14.78
2023-01-01T03:04:57.660Z,14.78
2023-01-01T03:06:25.384Z,14.77
2023-01-01T03:07:47.135Z,14.77
2023-01-01T03:08:57.203Z,14.77
2023-01-01T03:10:33.763Z,14.77
2023-01-01T03:11:59.737Z,14.78
2023-01-01T03:13:28.730Z,14.77
2023-01-01T03:14:40.844Z,14.77
2023-01-01T03:16:18.447Z,14.77
2023-01-01T03:17:41.341Z,14.77
2023-01-01T03:19:11.143Z,14.78
2023-01-01T03:20:22.410Z,14.79
2023-01-01T03:21:25.701Z,14.79
2023-01-01T03:22:33.080Z,14.79
2023-01-01T03:23:49.401Z,14.79
2023-01-01T03:24:58.770Z,14.80
2023-01-01T03:26:08.728Z,14.79
2023-01-01T03:27:36.789Z,14.79
2023-01-01T03:28:54.840Z,14.80
2023-01-01T03:30:03.567Z,14.80
2023-01-01T03:31:07.272Z,14.80
2023-01-01T03:32:16.961Z,14.80
2023-01-01T03:33:28.345Z,14.80
2023-01-01T03:34:40.010Z,14.80
2023-01-01T03:36:03.858Z,14.79
2023-01-01T03:37:14.824Z,14.79
2023-01-01T03:38:38.765Z,14.79
2023-01-01T03:39:47.528Z,14.80
2023-01-01T03:40:56.450Z,14.79
2023-01-01T03:42:13.064Z,14.81
2023-01-01T03:43:22.583Z,14.80
2023-01-01T03:44:29.244Z,14.80
2023-01-01T03:45:40.049Z,14.80
2023-01-01T03:46:43.114Z,14.81
2023-01-01T03:47:46.739Z,14.80
2023-01-01T03:49:02.529Z,14.81
2023-01-01T03:50:07.600Z,14.81
2023-01-01T03:51:20.846Z,14.81
2023-01-01T03:52:36.856Z,14.82
2023-01-01T03:53:44.424Z,14.82
2023-01-01T03:55:13.727Z,14.82
2023-01-01T03:56:38.249Z,14.83
2023-01-01T03:57:55.562Z,14.83
2023-01-01T03:59:22.538Z,14.83
2023-01-01T04:00:32.203Z,14.84
2023-01-01T04:01:45.410Z,14.84
2023-01-01T04:03:15.572Z,14.85
2023-01-01T04:04:19.459Z,14.86
2023-01-01T04:05:24.643Z,14.85
2023-01-01T04:06:28.540Z,14.85
2023-01-01T04:07:32.057Z,14.86
2023-01-01T04:08:36.114Z,14.87
2023-01-01T04:09:42.702Z,14.88
2023-01-01T04:10:57.928Z,14.88
2023-01-01T04:12:01.551Z,14.88
2023-01-01T04:13:06.573Z,14.88
2023-01-01T04:14:09.617Z,14.89
2023-01-01T04:15:13.265Z,14.88
2023-01-01T04:16:16.421Z,14.87
2023-01-01T04:17:19.787Z,14.87
2023-01-01T04:18:22.995Z,14.88
2023-01-01T04:19:26.526Z,14.88
2023-01-01T04:20:29.636Z,14.89
2023-01-01T04:21:33.900Z,14.89
2023-01-01T04:22:37.054Z,14.90
2023-01-01T04:23:40.386Z,14.90
2023-01-01T04:24:43.414Z,14.90
2023-01-01T04:25:47.298Z,14.90
2023-01-01T04:26:52.005Z,14.90
2023-01-01T04:27:55.347Z,14.90
2023-01-01T04:28:58.471Z,14.91
2023-01-01T04:30:01.534Z,14.92
2023-01-01T04:31:04.747Z,14.93
2023-01-01T04:32:08.026Z,14.93
2023-01-01T04:33:11.096Z,14.94
2023-01-01T04:34:14.804Z,14.93
2023-01-01T04:35:18.687Z,14.93
2023-01-01T04:36:21.815Z,14.94
2023-01-01T04:37:24.982Z,14.93
2023-01-01T04:38:27.971Z,14.94
2023-01-01T04:39:31.142Z,14.93
2023-01-01T04:40:34.077Z,14.94
2023-01-01T04:41:37.084Z,14.94
2023-01-01T04:42:40.540Z,14.95
2023-01-01T04:43:49.813Z,14.95
2023-01-01T04:44:53.015Z,14.96
2023-01-01T04:46:03.258Z,14.95
2023-01-01T04:47:06.563Z,14.96
2023-01-01T04:48:09.559Z,14.95
2023-01-01T04:49:12.524Z,14.95
2023-01-01T04:50:15.633Z,14.96
2023-01-01T04:51:20.950Z,14.96
2023-01-01T04:52:24.210Z,14.96
2023-01-01T04:53:31.200Z,14.97
2023-01-01T04:54:34.372Z,14.96
2023-01-01T04:55:37.395Z,14.96
2023-01-01T04:56:40.367Z,14.96
2023-01-01T04:57:44.579Z,14.97
2023-01-01T04:58:48.669Z,14.97
2023-01-01T04:59:51.769Z,14.97
2023-01-01T05:00:54.777Z,14.98
2023-01-01T05:01:58.658Z,14.98
2023-01-01T05:03:04.370Z,14.98
2023-01-01T05:04:08.075Z,14.98
2023-01-01T05:05:11.134Z,14.98
2023-01-01T05:06:15.287Z,14.98
2023-01-01T05:07:18.519Z,14.97
2023-01-01T05:08:21.767Z,14.97
2023-01-01T05:09:24.801Z,14.97
2023-01-01T05:10:27.951Z,14.98
2023-01-01T05:11:33.591Z,14.98
2023-01-01T05:12:36.648Z,14.98
2023-01-01T05:13:42.504Z,14.99
2023-01-01T05:14:45.607Z,14.99
2023-01-01T05:15:48.574Z,14.99
2023-01-01T05:16:53.353Z,14.99
2023-01-01T05:17:56.338Z,14.99
2023-01-01T05:18:59.632Z,15.00
2023-01-01T05:20:03.915Z,15.00
2023-01-01T05:21:14.660Z,15.00
2023-01-01T05:22:17.678Z,15.00
2023-01-01T05:23:21.472Z,14.99
2023-01-01T05:24:24.621Z,14.99
2023-01-01T05:25:27.690Z,15.00
2023-01-01T05:26:33.666Z,15.00
2023-01-01T05:27:36.740Z,14.99
2023-01-01T05:28:40.765Z,14.99
2023-01-01T05:29:43.935Z,15.00
2023-01-01T05:30:47.232Z,15.00
2023-01-01T05:31:50.292Z,14.99
2023-01-01T05:32:53.292Z,15.00
2023-01-01T05:35:01.101Z,15.00
2023-01-01T05:36:06.642Z,15.00
2023-01-01T05:37:09.648Z,14.99
2023-01-01T05:38:12.840Z,14.99
2023-01-01T05:39:15.906Z,14.99
2023-01-01T05:40:19.510Z,15.00
2023-01-01T05:41:23.504Z,15.01
2023-01-01T05:42:26.738Z,15.01
2023-01-01T05:43:29.659Z,15.02
2023-01-01T05:44:32.665Z,15.04
2023-01-01T05:45:35.800Z,15.04
2023-01-01T05:46:39.405Z,15.06
2023-01-01T05:47:42.411Z,15.07
2023-01-01T05:48:45.902Z,15.06
2023-01-01T05:49:48.967Z,15.08
2023-01-01T05:50:53.393Z,15.09
2023-01-01T05:51:56.374Z,15.11
2023-01-01T05:52:59.440Z,15.12
2023-01-01T05:54:02.575Z,15.13
2023-01-01T05:55:06.286Z,15.14
2023-01-01T05:56:09.521Z,15.14
2023-01-01T05:57:12.609Z,15.15
2023-01-01T05:58:15.538Z,15.15
2023-01-01T05:59:18.569Z,15.15
2023-01-01T06:00:21.594Z,15.15
2023-01-01T06:01:30.528Z,15.16
2023-01-01T06:02:33.757Z,15.18
2023-01-01T06:03:37.419Z,15.17
2023-01-01T06:04:40.467Z,15.18
2023-01-01T06:05:44.251Z,15.20
2023-01-01T06:06:47.496Z,15.21
2023-01-01T06:07:50.547Z,15.21
2023-01-01T06:08:59.170Z,15.21
2023-01-01T06:10:02.613Z,15.22
2023-01-01T06:11:08.339Z,15.24
2023-01-01T06:12:11.685Z,15.24
2023-01-01T06:13:14.710Z,15.24
2023-01-01T06:14:17.723Z,15.23
2023-01-01T06:15:21.051Z,15.24
2023-01-01T06:16:25.210Z,15.25
2023-01-01T06:17:28.483Z,15.24
2023-01-01T06:18:34.669Z,15.24
2023-01-01T06:19:37.789Z,15.24
2023-01-01T06:20:41.108Z,15.24
2023-01-01T06:21:44.155Z,15.23
2023-01-01T06:22:47.290Z,15.23
2023-01-01T06:23:50.702Z,15.23
2023-01-01T06:24:53.632Z,15.22
2023-01-01T06:25:56.781Z,15.22
2023-01-01T06:26:59.813Z,15.21
2023-01-01T06:28:07.724Z,15.21
2023-01-01T06:29:10.750Z,15.21
2023-01-01T06:30:13.927Z,15.21
2023-01-01T06:31:20.278Z,15.22
2023-01-01T06:32:23.668Z,15.22
2023-01-01T06:33:26.974Z,15.23
2023-01-01T06:34:30.018Z,15.23
2023-01-01T06:35:34.033Z,15.24
2023-01-01T06:36:38.179Z,15.24
2023-01-01T06:37:41.527Z,15.25
2023-01-01T06:38:47.100Z,15.25
2023-01-01T06:39:50.150Z,15.26
2023-01-01T06:40:57.647Z,15.27
2023-01-01T06:42:00.731Z,15.26
2023-01-01T06:43:03.702Z,15.26
2023-01-01T06:44:07.019Z,15.26
2023-01-01T06:45:10.855Z,15.26
2023-01-01T06:46:28.571Z,15.26
2023-01-01T06:47:36.753Z,15.26
2023-01-01T06:48:43.605Z,15.24
2023-01-01T06:49:46.719Z,15.24
2023-01-01T06:50:49.717Z,15.25
2023-01-01T06:51:52.875Z,15.25
2023-01-01T06:52:55.962Z,15.25
2023-01-01T06:54:00.687Z,15.25
2023-01-01T06:55:04.059Z,15.25
2023-01-01T06:56:07.661Z,15.24
2023-01-01T06:57:11.044Z,15.23
2023-01-01T06:58:14.464Z,15.24
2023-01-01T06:59:17.875Z,15.24
2023-01-01T07:00:21.211Z,15.25
2023-01-01T07:01:26.799Z,15.26
2023-01-01T07:02:30.255Z,15.26
2023-01-01T07:03:34.663Z,15.26
2023-01-01T07:04:38.251Z,15.25
2023-01-01T07:05:41.690Z,15.25
2023-01-01T07:06:44.695Z,15.26
2023-01-01T07:07:47.765Z,15.26
2023-01-01T07:08:51.797Z,15.26
2023-01-01T07:09:54.852Z,15.27
2023-01-01T07:10:58.307Z,15.28
2023-01-01T07:12:01.304Z,15.28
2023-01-01T07:13:04.371Z,15.28
2023-01-01T07:14:07.620Z,15.30
2023-01-01T07:15:11.062Z,15.31
2023-01-01T07:16:14.930Z,15.32
2023-01-01T07:17:17.936Z,15.31
2023-01-01T07:18:22.353Z,15.32
2023-01-01T07:19:25.370Z,15.32
2023-01-01T07:20:28.569Z,15.33
2023-01-01T07:21:33.675Z,15.34
2023-01-01T07:22:39.452Z,15.35
2023-01-01T07:23:42.465Z,15.35
2023-01-01T07:24:47.695Z,15.34
2023-01-01T07:25:52.093Z,15.35
2023-01-01T07:26:55.527Z,15.37
2023-01-01T07:27:58.561Z,15.37
2023-01-01T07:29:07.395Z,15.36
2023-01-01T07:30:13.329Z,15.37
2023-01-01T07:31:16.314Z,15.36
2023-01-01T07:32:19.346Z,15.37
2023-01-01T07:33:23.451Z,15.38
2023-01-01T07:34:26.455Z,15.39
2023-01-01T07:35:29.497Z,15.39
2023-01-01T07:36:33.017Z,15.39
2023-01-01T07:37:36.518Z,15.39
2023-01-01T07:38:42.273Z,15.39
2023-01-01T07:39:45.366Z,15.39
2023-01-01T07:40:48.368Z,15.40
2023-01-01T07:41:51.640Z,15.41
2023-01-01T07:42:54.785Z,15.42
2023-01-01T07:43:57.894Z,15.43
2023-01-01T07:45:00.911Z,15.43
2023-01-01T07:46:04.610Z,15.43
2023-01-01T07:47:27.818Z,15.43
2023-01-01T07:48:36.059Z,15.44
2023-01-01T07:49:42.846Z,15.44
2023-01-01T07:50:46.216Z,15.43
2023-01-01T07:51:49.176Z,15.44
2023-01-01T07:52:52.484Z,15.43
2023-01-01T07:53:59.264Z,15.44
2023-01-01T07:55:05.657Z,15.43
2023-01-01T07:56:10.538Z,15.43
2023-01-01T07:57:13.574Z,15.43
2023-01-01T07:58:16.605Z,15.43
2023-01-01T07:59:20.788Z,15.42
2023-01-01T08:00:23.890Z,15.43
2023-01-01T08:01:27.057Z,15.43
2023-01-01T08:02:30.290Z,15.42
2023-01-01T08:03:33.592Z,15.43
2023-01-01T08:04:36.656Z,15.43
2023-01-01T08:05:39.770Z,15.43
2023-01-01T08:06:42.726Z,15.43
2023-01-01T08:07:48.205Z,15.43
2023-01-01T08:08:51.171Z,15.43
2023-01-01T08:09:54.361Z,15.43
2023-01-01T08:11:03.919Z,15.43
2023-01-01T08:12:07.431Z,15.43
2023-01-01T08:13:10.626Z,15.42
2023-01-01T08:14:13.988Z,15.43
2023-01-01T08:15:17.158Z,15.43
2023-01-01T08:16:20.249Z,15.43
2023-01-01T08:17:23.270Z,15.43
2023-01-01T08:18:26.684Z,15.44
2023-01-01T08:19:29.690Z,15.44
2023-01-01T08:20:34.251Z,15.44
2023-01-01T08:21:39.236Z,15.44
2023-01-01T08:22:42.232Z,15.45
2023-01-01T08:23:45.231Z,15.44
2023-01-01T08:24:48.245Z,15.45
2023-01-01T08:25:51.559Z,15.45
2023-01-01T08:26:54.971Z,15.44
2023-01-01T08:27:57.978Z,15.46
2023-01-01T08:29:05.463Z,15.45
2023-01-01T08:30:10.699Z,15.45
2023-01-01T08:31:13.890Z,15.45
2023-01-01T08:32:16.946Z,15.46
2023-01-01T08:33:20.032Z,15.47
2023-01-01T08:34:22.974Z,15.46
2023-01-01T08:35:25.910Z,15.47
2023-01-01T08:36:29.224Z,15.47
2023-01-01T08:37:32.571Z,15.48
2023-01-01T08:38:35.566Z,15.48
2023-01-01T08:39:38.580Z,15.48
2023-01-01T08:40:41.858Z,15.48
2023-01-01T08:41:45.126Z,15.49
2023-01-01T08:42:48.041Z,15.48
2023-01-01T08:43:51.178Z,15.49
2023-01-01T08:44:54.269Z,15.48
2023-01-01T08:45:57.198Z,15.48
2023-01-01T08:47:00.320Z,15.49
2023-01-01T08:48:03.782Z,15.49
2023-01-01T08:49:06.784Z,15.49
2023-01-01T08:50:09.998Z,15.49
2023-01-01T08:51:13.102Z,15.49
2023-01-01T08:52:21.405Z,15.50
2023-01-01T08:53:24.387Z,15.50
2023-01-01T08:54:27.540Z,15.50
2023-01-01T08:55:31.385Z,15.51
2023-01-01T08:56:34.619Z,15.52
2023-01-01T08:57:37.971Z,15.52
2023-01-01T08:58:42.190Z,15.52
2023-01-01T08:59:45.196Z,15.53
2023-01-01T09:00:48.176Z,15.52
2023-01-01T09:01:51.264Z,15.52
2023-01-01T09:02:55.301Z,15.53
2023-01-01T09:03:58.343Z,15.54
2023-01-01T09:05:01.307Z,15.55
2023-01-01T09:06:05.079Z,15.54
2023-01-01T09:07:08.200Z,15.55
2023-01-01T09:08:12.794Z,15.55
2023-01-01T09:09:17.260Z,15.55
2023-01-01T09:10:22.483Z,15.55
2023-01-01T09:11:30.264Z,15.55
2023-01-01T09:12:33.292Z,15.55
2023-01-01T09:13:36.318Z,15.56
2023-01-01T09:14:39.207Z,15.57
2023-01-01T09:15:43.197Z,15.57
2023-01-01T09:16:46.849Z,15.58
2023-01-01T09:17:52.221Z,15.59
2023-01-01T09:18:55.305Z,15.59
2023-01-01T09:19:58.238Z,15.60
2023-01-01T09:21:01.251Z,15.61
2023-01-01T09:22:04.252Z,15.62
2023-01-01T09:23:08.597Z,15.63
2023-01-01T09:24:11.801Z,15.63
2023-01-01T09:25:14.774Z,15.63
2023-01-01T09:26:17.687Z,15.63
2023-01-01T09:27:20.637Z,15.64
2023-01-01T09:28:26.107Z,15.64
2023-01-01T09:29:29.552Z,15.65
2023-01-01T09:30:33.276Z,15.65
2023-01-01T09:31:36.444Z,15.66
2023-01-01T09:32:39.601Z,15.66
2023-01-01T09:33:42.776Z,15.66
2023-01-01T09:34:51.949Z,15.68
2023-01-01T09:36:17.051Z,15.69
2023-01-01T09:37:20.269Z,15.68
2023-01-01T09:38:24.015Z,15.70
2023-01-01T09:39:27.290Z,15.72
2023-01-01T09:40:58.095Z,15.72
2023-01-01T09:42:12.341Z,15.73
2023-01-01T09:43:29.492Z,15.75
2023-01-01T09:44:45.458Z,15.76
2023-01-01T09:46:09.004Z,15.78
2023-01-01T09:47:47.682Z,15.80
2023-01-01T09:48:58.764Z,15.82
2023-01-01T09:50:07.709Z,15.84
2023-01-01T09:51:18.171Z,15.85
2023-01-01T09:52:22.699Z,15.86
2023-01-01T09:53:30.987Z,15.88
2023-01-01T09:54:48.035Z,15.89
2023-01-01T09:55:59.427Z,15.90
2023-01-01T09:57:30.894Z,15.92
2023-01-01T09:58:41.138Z,15.94
2023-01-01T09:59:45.038Z,15.96
2023-01-01T10:00:53.466Z,15.98
2023-01-01T10:02:32.861Z,16.00
2023-01-01T10:03:57.704Z,16.02
2023-01-01T10:05:20.698Z,16.03
2023-01-01T10:06:42.325Z,16.04
2023-01-01T10:08:06.879Z,16.07
2023-01-01T10:09:24.444Z,16.09
2023-01-01T10:10:41.293Z,16.11
2023-01-01T10:12:11.651Z,16.13
2023-01-01T10:13:36.111Z,16.14
2023-01-01T10:14:48.755Z,16.16
2023-01-01T10:16:33.865Z,16.17
2023-01-01T10:17:42.384Z,16.17
2023-01-01T10:18:50.687Z,16.17
2023-01-01T10:20:02.373Z,16.17
2023-01-01T10:21:12.498Z,16.18
2023-01-01T10:22:18.934Z,16.18
2023-01-01T10:23:28.796Z,16.17
2023-01-01T10:24:34.543Z,16.16
2023-01-01T10:25:40.158Z,16.17
2023-01-01T10:26:43.393Z,16.18
2023-01-01T10:28:07.323Z,16.18
2023-01-01T10:29:24.803Z,16.19
2023-01-01T10:30:30.425Z,16.19
2023-01-01T10:31:42.992Z,16.19
2023-01-01T10:32:51.730Z,16.20
2023-01-01T10:33:55.115Z,16.20
2023-01-01T10:34:59.769Z,16.20
2023-01-01T10:36:03.035Z,16.20
2023-01-01T10:37:06.456Z,16.21
2023-01-01T10:38:22.749Z,16.22
2023-01-01T10:39:27.402Z,16.24
2023-01-01T10:40:31.666Z,16.26
2023-01-01T10:41:34.845Z,16.27
2023-01-01T10:42:38.006Z,16.29
2023-01-01T10:43:41.156Z,16.30
2023-01-01T10:44:44.982Z,16.34
2023-01-01T10:45:56.414Z,16.36
2023-01-01T10:47:13.904Z,16.37
2023-01-01T10:48:21.013Z,16.39
2023-01-01T10:49:24.193Z,16.41
2023-01-01T10:50:42.243Z,16.43
2023-01-01T10:51:48.753Z,16.45
2023-01-01T10:52:56.842Z,16.47
2023-01-01T10:54:02.674Z,16.50
2023-01-01T10:55:06.946Z,16.51
2023-01-01T10:56:20.315Z,16.52
2023-01-01T10:57:35.923Z,16.53
2023-01-01T10:58:49.460Z,16.54
2023-01-01T10:59:54.549Z,16.55
2023-01-01T11:00:59.781Z,16.56
2023-01-01T11:02:19.691Z,16.56
2023-01-01T11:03:25.102Z,16.59
2023-01-01T11:04:28.328Z,16.59
2023-01-01T11:05:31.544Z,16.62
2023-01-01T11:06:38.694Z,16.62
2023-01-01T11:07:43.944Z,16.62
2023-01-01T11:08:50.835Z,16.62
2023-01-01T11:10:04.812Z,16.64
2023-01-01T11:11:26.665Z,16.66
2023-01-01T11:13:04.144Z,16.65
2023-01-01T11:14:04.530Z,16.65
2023-01-01T11:15:10.442Z,16.64
2023-01-01T11:16:15.152Z,16.65
2023-01-01T11:17:29.003Z,16.66
2023-01-01T11:18:36.207Z,16.66
2023-01-01T11:19:47.090Z,16.67
2023-01-01T11:20:58.279Z,16.67
2023-01-01T11:22:01.385Z,16.66
2023-01-01T11:23:30.006Z,16.65
2023-01-01T11:24:35.052Z,16.64
2023-01-01T11:25:38.032Z,16.64
2023-01-01T11:26:41.163Z,16.63
2023-01-01T11:27:45.141Z,16.62
2023-01-01T11:29:04.576Z,16.62
2023-01-01T11:30:28.363Z,16.62
2023-01-01T11:31:38.186Z,16.61
2023-01-01T11:32:41.629Z,16.60
2023-01-01T11:33:49.799Z,16.60
2023-01-01T11:35:00.269Z,16.61
2023-01-01T11:36:30.422Z,16.59
2023-01-01T11:37:38.912Z,16.58
2023-01-01T11:38:42.008Z,16.58
2023-01-01T11:39:51.255Z,16.57
2023-01-01T11:40:56.811Z,16.57
2023-01-01T11:42:00.328Z,16.58
2023-01-01T11:43:13.834Z,16.58
2023-01-01T11:44:30.308Z,16.58
2023-01-01T11:45:38.777Z,16.58
2023-01-01T11:46:46.358Z,16.57
2023-01-01T11:48:01.300Z,16.58
2023-01-01T11:49:13.575Z,16.59
2023-01-01T11:50:16.463Z,16.58
2023-01-01T11:51:33.234Z,16.58
2023-01-01T11:52:41.906Z,16.59
2023-01-01T11:53:45.153Z,16.61
2023-01-01T11:54:48.743Z,16.62
2023-01-01T11:56:04.041Z,16.62
2023-01-01T11:57:16.253Z,16.64
2023-01-01T11:58:57.343Z,16.64
2023-01-01T12:00:03.986Z,16.63
2023-01-01T12:01:29.459Z,16.62
2023-01-01T12:02:40.654Z,16.62
2023-01-01T12:03:53.338Z,16.62
2023-01-01T12:05:14.872Z,16.62
2023-01-01T12:06:47.017Z,16.63
2023-01-01T12:07:51.758Z,16.62
2023-01-01T12:09:18.294Z,16.62
2023-01-01T12:10:26.096Z,16.63
2023-01-01T12:11:42.553Z,16.62
2023-01-01T12:13:02.402Z,16.64
2023-01-01T12:14:40.667Z,16.65
2023-01-01T12:16:12.386Z,16.65
2023-01-01T12:17:32.211Z,16.66
2023-01-01T12:18:53.028Z,16.67
2023-01-01T12:20:21.442Z,16.66
2023-01-01T12:21:32.778Z,16.66
2023-01-01T12:22:35.899Z,16.66
2023-01-01T12:23:40.235Z,16.66
2023-01-01T12:24:44.817Z,16.67
2023-01-01T12:25:57.911Z,16.68
2023-01-01T12:27:16.321Z,16.67
2023-01-01T12:28:42.970Z,16.66
2023-01-01T12:30:11.807Z,16.63
2023-01-01T12:31:40.972Z,16.62
2023-01-01T12:32:49.988Z,16.60
2023-01-01T12:34:04.923Z,16.58
2023-01-01T12:35:13.632Z,16.57
2023-01-01T12:36:33.694Z,16.56
2023-01-01T12:37:52.437Z,16.54
2023-01-01T12:39:28.314Z,16.52
2023-01-01T12:40:43.513Z,16.48
2023-01-01T12:42:02.870Z,16.46
2023-01-01T12:43:10.357Z,16.43
2023-01-01T12:44:40.895Z,16.41
2023-01-01T12:45:53.479Z,16.39
2023-01-01T12:47:02.345Z,16.36
2023-01-01T12:48:37.184Z,16.33
2023-01-01T12:50:08.884Z,16.31
2023-01-01T12:51:30.509Z,16.28
2023-01-01T12:52:48.603Z,16.26
2023-01-01T12:54:08.197Z,16.25
2023-01-01T12:55:32.582Z,16.24
2023-01-01T12:56:48.296Z,16.23
2023-01-01T12:57:55.933Z,16.21
2023-01-01T12:59:11.603Z,16.21
2023-01-01T13:00:17.039Z,16.18
2023-01-01T13:01:27.126Z,16.16
2023-01-01T13:02:39.701Z,16.15
2023-01-01T13:03:50.708Z,16.14
2023-01-01T13:05:01.088Z,16.13
2023-01-01T13:06:05.713Z,16.12
2023-01-01T13:07:13.218Z,16.11
2023-01-01T13:08:17.161Z,16.10
2023-01-01T13:09:26.535Z,16.10
2023-01-01T13:10:41.343Z,16.08
2023-01-01T13:11:48.263Z,16.08
2023-01-01T13:12:57.939Z,16.07
2023-01-01T13:14:01.177Z,16.06
2023-01-01T13:15:40.263Z,16.05
2023-01-01T13:16:51.723Z,16.02
2023-01-01T13:17:54.951Z,16.01
2023-01-01T13:19:02.653Z,16.00
2023-01-01T13:20:06.497Z,16.00
2023-01-01T13:21:18.949Z,15.99
2023-01-01T13:22:36.602Z,15.97
2023-01-01T13:23:44.841Z,15.95
2023-01-01T13:25:13.368Z,15.91
2023-01-01T13:26:23.778Z,15.89
2023-01-01T13:27:56.188Z,15.87
2023-01-01T13:29:00.032Z,15.85
2023-01-01T13:30:04.823Z,15.83
2023-01-01T13:31:09.644Z,15.83
2023-01-01T13:32:14.395Z,15.82
2023-01-01T13:33:25.267Z,15.81
2023-01-01T13:34:38.313Z,15.80
2023-01-01T13:35:42.111Z,15.78
2023-01-01T13:36:45.012Z,15.78
2023-01-01T13:37:51.814Z,15.77
2023-01-01T13:38:56.179Z,15.76
2023-01-01T13:40:21.593Z,15.74
2023-01-01T13:41:45.863Z,15.72
2023-01-01T13:42:52.632Z,15.71
2023-01-01T13:44:00.191Z,15.69
2023-01-01T13:45:03.369Z,15.67
2023-01-01T13:46:15.508Z,15.66
2023-01-01T13:47:38.726Z,15.65
2023-01-01T13:49:03.183Z,15.63
2023-01-01T13:50:27.506Z,15.60
2023-01-01T13:52:05.368Z,15.58
2023-01-01T13:53:27.574Z,15.53
2023-01-01T13:54:49.015Z,15.50
2023-01-01T13:56:06.803Z,15.49
2023-01-01T13:57:29.424Z,15.48
2023-01-01T13:58:35.481Z,15.45
2023-01-01T14:00:01.770Z,15.44
2023-01-01T14:01:42.766Z,15.41
2023-01-01T14:02:53.184Z,15.38
2023-01-01T14:03:58.910Z,15.36
2023-01-01T14:05:29.715Z,15.35
2023-01-01T14:06:40.898Z,15.33
2023-01-01T14:07:52.811Z,15.31
2023-01-01T14:09:19.543Z,15.29
2023-01-01T14:10:35.341Z,15.27
2023-01-01T14:11:38.659Z,15.25
2023-01-01T14:12:41.782Z,15.24
2023-01-01T14:13:46.427Z,15.22
2023-01-01T14:14:49.357Z,15.22
2023-01-01T14:15:56.772Z,15.21
2023-01-01T14:17:02.165Z,15.20
2023-01-01T14:18:17.994Z,15.19
2023-01-01T14:19:23.273Z,15.17
2023-01-01T14:20:33.989Z,15.15
2023-01-01T14:21:39.059Z,15.13
2023-01-01T14:22:47.697Z,15.12
2023-01-01T14:24:01.710Z,15.10
2023-01-01T14:25:09.517Z,15.08
2023-01-01T14:26:16.762Z,15.06
2023-01-01T14:27:23.128Z,15.05
2023-01-01T14:28:30.205Z,15.02
2023-01-01T14:29:33.428Z,15.00
2023-01-01T14:30:36.702Z,15.00
2023-01-01T14:31:51.209Z,14.99
2023-01-01T14:33:01.939Z,14.99
2023-01-01T14:34:29.789Z,14.99
2023-01-01T14:35:34.444Z,14.97
2023-01-01T14:36:37.598Z,14.96
2023-01-01T14:37:41.198Z,14.94
2023-01-01T14:38:46.580Z,14.93
2023-01-01T14:40:07.031Z,14.92
2023-01-01T14:41:18.532Z,14.90
2023-01-01T14:42:21.841Z,14.89
2023-01-01T14:43:27.193Z,14.88
2023-01-01T14:44:37.643Z,14.85
2023-01-01T14:45:43.811Z,14.84